Home PIREPS Pireps

Flight BEL7012

  • Submitted By: Michael Bitu
  • Departure Airport: Rhein-Main-Flughafen Frankfurt am Main (EDDF)
  • Arrival Airport: Bruxelles National (EBBR)
  • Aircraft: A320-214 (OO-SNA)
  • Flight Time: 01.09
  • Date Submitted: 13/02/2018
  • Status: Accepted
Flight Details
Gross Revenue:
(132 load / € 41.00 per unit
€ 5,412.00
Fuel Cost:
(2419 fuel used @ 5.1 / unit)
€ 12,336.90

Additional Log Information:

View Log

Aircraft Used in flight is Airbus A319 Brussels Airlines OO-SSW
18:15 Brakes are On
18:15 Brakes are Released
18:22 You Took off @ 171 Knots and Flaps at Position 2
Departure Weather
EDDF 131650Z 13006KT CAVOK 03/M06 Q1012 R88/0///95 NOSIGrn
18:22 Landing Gear Up @ 176 Knots and 440 Feet
18:51 Below 10000 feet you are not allowed to go over 250 knots
18:51 Below FL100 you need to turn on the landing lights
18:59 Landing Gear Down @ 162 Knots and 2430 Feet
19:02 You Landed @ 145 Knots and with -300 Vertical Speed
Arrival Weather
EBBR 131750Z 14006KT CAVOK 02/M05 Q1008 NOSIGrn
19:02 Paused
19:09 Unpaused
19:09 Brakes are On
19:09 Brakes are Released
19:10 Brussels Bel-Track1.0.1.2

Route Map

Corporate About Us Our Team Vacancies Information Fleet Route Network Rules and Regulations Operations Flight Schedules Event Center Tours Partners IVAO Vatsim Acars dev FSCB

fb Users Online No pilots online!
0 Pilot(s) and 142 Guest(s) Online
CMS by phpVMS - Design by Crazycreatives.com - Copyright © 2018 - Brussels Airlines Virtual